AirNav   TITAN Aviation Fuels
 
 1528 users online  

5CL1 Hart Ranch Airport
Santa Margarita, California, USA

GOING TO SANTA MARGARITA?


FAA INFORMATION EFFECTIVE 02 DECEMBER 2021

Location

FAA Identifier: 5CL1
Lat/Long: 35-24-17.0000N 120-31-30.0000W
35-24.283333N 120-31.500000W
35.4047222,-120.5250000
(estimated)
Elevation: 1380 ft. / 421 m (estimated)
Variation: 15E (1990)
From city: 4 miles E of SANTA MARGARITA, CA
Time zone: UTC -8 (UTC -7 during Daylight Saving Time)
Zip code: 93453

Airport Operations

Airport use: Private use. Permission required prior to landing
Activation date: 07/1993
Control tower: no
ARTCC: OAKLAND CENTER
FSS: HAWTHORNE FLIGHT SERVICE STATION
Attendance: IREG
Wind indicator: yes
Segmented circle: no
Landing fee: yes

Airport Communications

WX ASOS at SBP (12 nm SW): 120.6 (805-547-1260)
WX ASOS at PRB (17 nm N): 120.125 (805-239-3593)
WX AWOS-3 at L52 (19 nm S): 118.375 (805-489-1305)

Nearby radio navigation aids

VOR radial/distance  VOR name  Freq  Var
MQOr035/14.7MORRO BAY VORTAC112.4016E
PRBr147/16.8PASO ROBLES VORTAC114.3016E
GLJr344/(27.1)GUADALUPE VOR111.0016E
AVEr225/30.4AVENAL VOR/DME117.1016E
FLWr284/37.3FELLOWS VOR/DME117.5016E

Airport Services

Runway Information

Runway 7/25

Dimensions: 1800 x 24 ft. / 549 x 7 m
Surface: gravel
RUNWAY 7  RUNWAY 25
Traffic pattern: leftleft

Airport Ownership and Management from official FAA records

Ownership: Privately-owned
Owner: STEVEN HART
5636 PARKHILL RD
SANTA MARGARITA, CA 93453
Phone 805-438-4041
Manager: STEVEN HART
5636 PARKHILL RD
SANTA MARGARITA, CA 93453
Phone 805-438-4041

Airport Operational Statistics

Aircraft based on the field: 1
Single engine airplanes: 1
    

Additional Remarks

FOR CD CTC OAKLAND ARTCC AT 510-745-3380.

Instrument Procedures

There are no published instrument procedures at 5CL1.

Some nearby airports with instrument procedures:

KSBP - San Luis County Regional Airport (12 nm SW)
KPRB - Paso Robles Municipal Airport (17 nm N)
KSMX - Santa Maria Public Airport/Capt G Allan Hancock Field (30 nm S)
KVBG - Vandenberg Space Force Base (40 nm S)
KLPC - Lompoc Airport (44 nm S)
 
Loc | Ops | Rwys | IFR | FBO | Links
Com | Nav | Svcs | Stats | Notes
Area around 5CL1 (Hart Ranch Airport)
 
Road maps at: MapQuest Bing Google
 
Aerial photo
No photo
 
Sectional chart

 
Airport distance calculator
Flying to Hart Ranch Airport? Find the distance to fly.

From to 5CL1

Sunrise and sunset
Times for 06-Dec-2021
 Local
(UTC-8)
 Zulu
(UTC)
Morning civil twilight06:3014:30
Sunrise06:5814:58
Sunset16:4800:48
Evening civil twilight17:1601:16

Current date and time
Zulu (UTC)  06-Dec-2021 19:13:02
Local (UTC-8)  06-Dec-2021 11:13:02
 
METAR
KSBP 
12nm SW 
061856Z 30011KT 10SM CLR 20/07 A3008 RMK AO2 SLP184 T02000067
KPRB 
17nm N 
061853Z AUTO 00000KT 10SM CLR 11/03 A3013 RMK AO2 SLP205 T01060033 $
KL52 
19nm S 
061855Z AUTO 00000KT 6SM HZ CLR 16/12 A3009 RMK A01
TAF
KSBP 
12nm SW 
061741Z 0618/0718 00000KT P6SM SKC FM061900 31012KT P6SM SCT250 FM070200 31006KT P6SM SCT250 FM070400 VRB03KT P6SM BKN100 FM071000 VRB03KT P6SM VCSH OVC050 FM071500 VRB03KT P6SM OVC070
KPRB 
17nm N 
061741Z 0618/0718 00000KT P6SM SKC FM062100 20005KT P6SM SCT250 FM070000 29008KT P6SM SCT250 FM070800 VRB03KT P6SM -SHRA OVC050 FM071400 VRB03KT P6SM VCSH OVC070
NOTAMs
Click for the latest NOTAMs
NOTAMs are issued by the DoD/FAA and will open in a separate window not controlled by AirNav.

 

 
 

Would you like to see your business listed on this page?

 If your business provides an interesting product or service to pilots, flight crews, aircraft, or users of the Hart Ranch Airport, you should consider listing it here.  To start the listing process, click on the button below
 
Add a business
 

Other Pages about Hart Ranch Airport

Update a link
 
Copyright © AirNav, LLC. All rights reserved. Privacy Policy  Contact